Time,TemperatureF,DewpointF,PressureIn,WindDirection,WindDirectionDegrees,WindSpeedMPH,WindSpeedGustMPH,Humidity,HourlyPrecipIn,Conditions,Clouds,dailyrainin,SoftwareType,DateUTC
2013-03-25 00:03:00,29.5,27.0,29.80,NW,320,8.4,8.4,98,0.00,,,0.00,TxWx,2013-03-25 05:03:00,
2013-03-25 00:09:00,29.4,27.0,29.80,WNW,302,13.2,13.2,98,0.00,,,0.00,TxWx,2013-03-25 05:09:00,
2013-03-25 00:14:00,29.4,27.0,29.80,NW,315,9.9,9.9,98,0.00,,,0.00,TxWx,2013-03-25 05:14:00,
2013-03-25 00:19:00,29.4,27.0,29.80,NW,304,10.8,12.6,98,0.00,,,0.00,TxWx,2013-03-25 05:19:00,
2013-03-25 00:24:00,29.4,27.0,29.80,WNW,298,11.1,11.1,98,0.00,,,0.00,TxWx,2013-03-25 05:24:00,
2013-03-25 00:29:00,29.6,28.0,29.80,WNW,300,9.3,9.3,98,0.00,,,0.00,TxWx,2013-03-25 05:29:00,
2013-03-25 00:34:00,29.8,28.0,29.80,NW,308,13.5,14.1,98,0.00,,,0.00,TxWx,2013-03-25 05:34:00,
2013-03-25 00:39:00,30.2,29.0,29.80,WNW,296,15.3,15.6,98,0.00,,,0.00,TxWx,2013-03-25 05:39:00,
2013-03-25 00:44:00,30.4,29.0,29.80,WNW,290,21.3,21.3,98,0.00,,,0.00,TxWx,2013-03-25 05:44:00,
2013-03-25 00:50:00,30.4,28.0,29.80,WNW,290,16.8,17.1,98,0.00,,,0.00,TxWx,2013-03-25 05:50:00,
2013-03-25 00:55:00,30.2,28.0,29.80,WNW,289,12.6,13.2,97,0.00,,,0.00,TxWx,2013-03-25 05:55:00,
2013-03-25 01:00:00,30.1,28.0,29.80,WNW,290,19.2,19.2,97,0.00,,,0.00,TxWx,2013-03-25 06:00:00,
2013-03-25 01:05:00,30.2,28.0,29.80,WNW,288,9.6,13.8,96,0.00,,,0.00,TxWx,2013-03-25 06:05:00,
2013-03-25 01:10:00,30.3,28.0,29.80,WNW,301,11.1,11.1,95,0.00,,,0.00,TxWx,2013-03-25 06:10:00,
2013-03-25 01:16:00,30.5,27.0,29.80,WNW,299,15.9,16.5,94,0.00,,,0.00,TxWx,2013-03-25 06:16:00,
2013-03-25 01:22:00,30.6,28.0,29.80,WNW,302,16.5,17.7,92,0.00,,,0.00,TxWx,2013-03-25 06:22:00,
2013-03-25 01:27:00,30.6,28.0,29.80,WNW,291,13.5,14.1,91,0.00,,,0.00,TxWx,2013-03-25 06:27:00,
2013-03-25 01:32:00,30.7,27.0,29.80,WNW,297,21.0,21.9,89,0.00,,,0.00,TxWx,2013-03-25 06:32:00,
2013-03-25 01:37:00,30.7,27.0,29.80,WNW,296,9.6,9.6,89,0.00,,,0.00,TxWx,2013-03-25 06:37:00,
2013-03-25 01:42:00,30.8,27.0,29.81,WNW,300,8.4,8.4,89,0.00,,,0.00,TxWx,2013-03-25 06:42:00,
2013-03-25 01:48:00,30.7,27.0,29.80,WNW,292,12.6,12.6,89,0.00,,,0.00,TxWx,2013-03-25 06:48:00,
2013-03-25 01:53:00,30.8,27.0,29.80,WNW,296,6.6,6.6,89,0.00,,,0.00,TxWx,2013-03-25 06:53:00,
2013-03-25 01:58:00,30.7,27.0,29.80,WNW,296,23.7,23.7,89,0.00,,,0.00,TxWx,2013-03-25 06:58:00,
2013-03-25 02:03:00,30.5,27.0,29.80,WNW,293,14.7,20.4,90,0.00,,,0.00,TxWx,2013-03-25 07:03:00,
2013-03-25 02:08:00,30.3,26.0,29.80,NW,305,21.3,25.2,90,0.00,,,0.00,TxWx,2013-03-25 07:08:00,
2013-03-25 02:14:00,30.2,26.0,29.80,NW,310,8.4,9.6,90,0.00,,,0.00,TxWx,2013-03-25 07:14:00,
2013-03-25 02:19:00,30.0,26.0,29.80,WNW,296,9.9,9.9,90,0.00,,,0.00,TxWx,2013-03-25 07:19:00,
2013-03-25 02:24:00,29.9,27.0,29.80,West,281,5.4,7.5,91,0.00,,,0.00,TxWx,2013-03-25 07:24:00,
2013-03-25 02:29:00,29.8,27.0,29.81,WNW,295,16.5,18.6,91,0.00,,,0.00,TxWx,2013-03-25 07:29:00,
2013-03-25 02:34:00,29.8,27.0,29.80,NW,307,11.4,17.7,91,0.00,,,0.00,TxWx,2013-03-25 07:34:00,
2013-03-25 02:40:00,29.7,27.0,29.80,WNW,293,8.1,9.3,92,0.00,,,0.00,TxWx,2013-03-25 07:40:00,
2013-03-25 02:45:00,29.6,27.0,29.80,WNW,295,10.2,10.2,93,0.00,,,0.00,TxWx,2013-03-25 07:45:00,
2013-03-25 02:50:00,29.6,27.0,29.80,WNW,303,12.0,12.0,94,0.00,,,0.00,TxWx,2013-03-25 07:50:00,
2013-03-25 02:55:00,29.6,27.0,29.80,WNW,288,15.0,15.0,94,0.00,,,0.00,TxWx,2013-03-25 07:55:00,
2013-03-25 03:00:00,29.7,27.0,29.80,WNW,301,17.1,20.4,94,0.00,,,0.00,TxWx,2013-03-25 08:00:00,
2013-03-25 03:05:00,29.7,27.0,29.80,WNW,301,13.5,13.5,94,0.00,,,0.00,TxWx,2013-03-25 08:05:00,
2013-03-25 03:10:00,29.8,27.0,29.80,WNW,285,10.2,10.2,94,0.00,,,0.00,TxWx,2013-03-25 08:10:00,
2013-03-25 03:15:00,29.9,27.0,29.80,WNW,297,15.9,15.9,93,0.00,,,0.00,TxWx,2013-03-25 08:15:00,
2013-03-25 03:20:00,30.0,27.0,29.80,WNW,292,14.7,14.7,93,0.00,,,0.00,TxWx,2013-03-25 08:20:00,
2013-03-25 03:25:00,30.4,27.0,29.80,WNW,293,6.9,7.8,91,0.00,,,0.00,TxWx,2013-03-25 08:25:00,
2013-03-25 03:30:00,30.7,27.0,29.80,WNW,291,12.6,12.6,88,0.00,,,0.00,TxWx,2013-03-25 08:30:00,
2013-03-25 03:35:00,30.9,26.0,29.80,WNW,296,13.5,14.1,86,0.00,,,0.00,TxWx,2013-03-25 08:35:00,
2013-03-25 03:41:00,31.2,26.0,29.80,WNW,294,19.8,23.1,84,0.00,,,0.00,TxWx,2013-03-25 08:41:00,
2013-03-25 03:46:00,31.2,25.0,29.80,WNW,295,17.7,18.6,83,0.00,,,0.00,TxWx,2013-03-25 08:46:00,
2013-03-25 03:51:00,31.2,26.0,29.80,SSE,160,8.7,10.2,84,0.00,,,0.00,TxWx,2013-03-25 08:51:00,
2013-03-25 03:56:00,31.3,26.0,29.80,WNW,292,8.4,9.6,84,0.00,,,0.00,TxWx,2013-03-25 08:56:00,
2013-03-25 04:01:00,31.3,26.0,29.80,WNW,292,16.5,16.5,84,0.00,,,0.00,TxWx,2013-03-25 09:01:00,
2013-03-25 04:07:00,31.4,25.0,29.80,NW,304,8.1,9.9,83,0.00,,,0.00,TxWx,2013-03-25 09:07:00,
2013-03-25 04:12:00,31.5,25.0,29.80,WNW,299,19.5,19.5,83,0.00,,,0.00,TxWx,2013-03-25 09:12:00,
2013-03-25 04:17:00,31.5,26.0,29.80,WNW,289,17.4,17.4,83,0.00,,,0.00,TxWx,2013-03-25 09:17:00,
2013-03-25 04:22:00,31.6,26.0,29.80,NW,306,16.5,19.8,82,0.00,,,0.00,TxWx,2013-03-25 09:22:00,
2013-03-25 04:27:00,31.7,26.0,29.80,WNW,300,8.1,12.9,82,0.00,,,0.00,TxWx,2013-03-25 09:27:00,
2013-03-25 04:33:00,31.8,26.0,29.80,WNW,288,7.5,9.3,81,0.00,,,0.00,TxWx,2013-03-25 09:33:00,
2013-03-25 04:38:00,31.8,26.0,29.80,WNW,296,11.4,11.7,81,0.00,,,0.00,TxWx,2013-03-25 09:38:00,
2013-03-25 04:43:00,32.0,26.0,29.80,NW,305,18.3,19.2,80,0.00,,,0.00,TxWx,2013-03-25 09:43:00,
2013-03-25 04:48:00,32.0,25.0,29.80,NW,310,17.7,17.7,80,0.00,,,0.00,TxWx,2013-03-25 09:48:00,
2013-03-25 04:53:00,32.0,25.0,29.80,WNW,295,9.0,10.2,79,0.00,,,0.00,TxWx,2013-03-25 09:53:00,
2013-03-25 04:58:00,32.0,25.0,29.81,WNW,302,9.6,10.8,80,0.00,,,0.00,TxWx,2013-03-25 09:58:00,
2013-03-25 05:03:00,32.1,25.0,29.81,NW,305,12.6,13.8,80,0.00,,,0.00,TxWx,2013-03-25 10:03:00,
2013-03-25 05:08:00,32.2,25.0,29.81,WNW,290,10.5,11.4,79,0.00,,,0.00,TxWx,2013-03-25 10:08:00,
2013-03-25 05:13:00,32.2,25.0,29.81,WNW,300,12.9,14.1,79,0.00,,,0.00,TxWx,2013-03-25 10:13:00,
2013-03-25 05:19:00,32.4,25.0,29.81,WNW,291,11.1,11.1,79,0.00,,,0.00,TxWx,2013-03-25 10:19:00,
2013-03-25 05:24:00,32.4,25.0,29.81,WNW,296,18.9,18.9,79,0.00,,,0.00,TxWx,2013-03-25 10:24:00,
2013-03-25 05:29:00,32.5,25.0,29.81,WNW,298,16.2,18.9,80,0.00,,,0.00,TxWx,2013-03-25 10:29:00,
2013-03-25 05:34:00,32.5,25.0,29.81,WNW,297,10.5,10.8,79,0.00,,,0.00,TxWx,2013-03-25 10:34:00,
2013-03-25 05:40:00,32.5,26.0,29.81,WNW,295,9.3,11.7,79,0.00,,,0.00,TxWx,2013-03-25 10:40:00,
2013-03-25 05:44:00,32.5,26.0,29.81,NW,308,13.5,14.1,79,0.00,,,0.00,TxWx,2013-03-25 10:44:00,
2013-03-25 05:50:00,32.6,26.0,29.81,WNW,288,9.9,11.1,79,0.00,,,0.00,TxWx,2013-03-25 10:50:00,
2013-03-25 05:55:00,32.6,26.0,29.82,NW,304,15.0,15.0,79,0.00,,,0.00,TxWx,2013-03-25 10:55:00,
2013-03-25 06:00:00,32.7,26.0,29.82,WNW,302,21.0,21.0,78,0.00,,,0.00,TxWx,2013-03-25 11:00:00,
2013-03-25 06:05:00,32.8,26.0,29.82,NW,305,17.4,18.6,79,0.00,,,0.00,TxWx,2013-03-25 11:05:00,
2013-03-25 06:10:00,32.7,26.0,29.82,NW,307,13.2,13.2,79,0.00,,,0.00,TxWx,2013-03-25 11:10:00,
2013-03-25 06:15:00,32.8,26.0,29.82,WNW,302,11.7,11.7,79,0.00,,,0.00,TxWx,2013-03-25 11:15:00,
2013-03-25 06:21:00,32.8,26.0,29.82,NW,305,9.0,9.0,79,0.00,,,0.00,TxWx,2013-03-25 11:21:00,
2013-03-25 06:26:00,32.7,26.0,29.83,NW,304,15.6,16.2,78,0.00,,,0.00,TxWx,2013-03-25 11:26:00,
2013-03-25 06:32:00,32.6,26.0,29.83,WNW,294,15.3,17.1,77,0.00,,,0.00,TxWx,2013-03-25 11:32:00,
2013-03-25 06:37:00,32.6,26.0,29.83,WNW,297,12.6,12.6,78,0.00,,,0.00,TxWx,2013-03-25 11:37:00,
2013-03-25 06:42:00,32.7,26.0,29.83,NW,304,14.4,17.7,78,0.00,,,0.00,TxWx,2013-03-25 11:42:00,
2013-03-25 06:47:00,32.7,26.0,29.83,WNW,303,10.2,11.4,79,0.00,,,0.00,TxWx,2013-03-25 11:47:00,
2013-03-25 06:52:00,32.6,26.0,29.83,WNW,296,9.6,10.5,79,0.00,,,0.00,TxWx,2013-03-25 11:52:00,
2013-03-25 06:58:00,32.6,26.0,29.83,NW,308,12.6,12.6,79,0.00,,,0.00,TxWx,2013-03-25 11:58:00,
2013-03-25 07:03:00,32.6,26.0,29.83,WNW,301,16.8,17.7,79,0.00,,,0.00,TxWx,2013-03-25 12:03:00,
2013-03-25 07:08:00,32.6,26.0,29.84,WNW,296,14.4,14.4,79,0.00,,,0.00,TxWx,2013-03-25 12:08:00,
2013-03-25 07:13:00,32.7,26.0,29.83,WNW,284,14.4,18.3,79,0.00,,,0.00,TxWx,2013-03-25 12:13:00,
2013-03-25 07:18:00,32.7,26.0,29.84,WNW,301,20.4,22.5,79,0.00,,,0.00,TxWx,2013-03-25 12:18:00,
2013-03-25 07:23:00,32.9,26.0,29.84,NW,308,18.9,18.9,79,0.00,,,0.00,TxWx,2013-03-25 12:23:00,
2013-03-25 07:28:00,32.8,26.0,29.84,NW,308,12.9,13.5,79,0.00,,,0.00,TxWx,2013-03-25 12:28:00,
2013-03-25 07:33:00,32.8,26.0,29.84,WNW,291,10.2,13.8,79,0.00,,,0.00,TxWx,2013-03-25 12:33:00,
2013-03-25 07:38:00,32.9,26.0,29.85,WNW,300,16.2,16.5,79,0.00,,,0.00,TxWx,2013-03-25 12:38:00,
2013-03-25 07:44:00,33.0,26.0,29.85,WNW,296,13.8,14.4,79,0.00,,,0.00,TxWx,2013-03-25 12:44:00,
2013-03-25 07:49:00,33.0,26.0,29.85,WNW,294,21.0,21.0,79,0.00,,,0.00,TxWx,2013-03-25 12:49:00,
2013-03-25 07:54:00,33.0,26.0,29.85,WNW,296,17.1,21.0,79,0.00,,,0.00,TxWx,2013-03-25 12:54:00,
2013-03-25 07:59:00,33.0,26.0,29.85,NW,307,16.2,19.8,79,0.00,,,0.00,TxWx,2013-03-25 12:59:00,
2013-03-25 08:04:00,33.1,26.0,29.86,WNW,298,15.6,15.6,78,0.00,,,0.00,TxWx,2013-03-25 13:04:00,
2013-03-25 08:09:00,33.2,26.0,29.86,WNW,303,21.9,22.2,79,0.00,,,0.00,TxWx,2013-03-25 13:09:00,
2013-03-25 08:14:00,33.2,26.0,29.86,WNW,301,12.3,13.8,79,0.00,,,0.00,TxWx,2013-03-25 13:14:00,
2013-03-25 08:20:00,33.2,26.0,29.86,NW,307,14.7,15.3,80,0.00,,,0.00,TxWx,2013-03-25 13:20:00,
2013-03-25 08:25:00,33.2,26.0,29.86,NW,305,20.1,20.1,80,0.00,,,0.00,TxWx,2013-03-25 13:25:00,
2013-03-25 08:30:00,33.3,26.0,29.87,WNW,302,14.4,14.4,79,0.00,,,0.00,TxWx,2013-03-25 13:30:00,
2013-03-25 08:35:00,33.2,26.0,29.87,WNW,302,10.2,11.1,79,0.00,,,0.00,TxWx,2013-03-25 13:35:00,
2013-03-25 08:41:00,33.3,26.0,29.87,WNW,299,14.4,14.4,78,0.00,,,0.00,TxWx,2013-03-25 13:41:00,
2013-03-25 08:46:00,33.4,26.0,29.87,NW,309,19.5,19.5,78,0.00,,,0.00,TxWx,2013-03-25 13:46:00,
2013-03-25 08:51:00,33.4,26.0,29.87,WNW,298,20.1,20.1,77,0.00,,,0.00,TxWx,2013-03-25 13:51:00,
2013-03-25 08:57:00,33.5,26.0,29.88,WNW,301,14.7,16.2,78,0.00,,,0.00,TxWx,2013-03-25 13:57:00,
2013-03-25 09:02:00,33.6,27.0,29.88,WNW,296,16.8,16.8,77,0.00,,,0.00,TxWx,2013-03-25 14:02:00,
2013-03-25 09:08:00,33.7,27.0,29.88,WNW,300,15.6,17.1,77,0.00,,,0.00,TxWx,2013-03-25 14:08:00,
2013-03-25 09:13:00,33.8,26.0,29.88,WNW,298,11.7,15.0,77,0.00,,,0.00,TxWx,2013-03-25 14:13:00,
2013-03-25 09:18:00,33.8,27.0,29.89,WNW,303,15.9,16.8,77,0.00,,,0.00,TxWx,2013-03-25 14:18:00,
2013-03-25 09:23:00,33.8,26.0,29.89,WNW,294,17.1,17.7,76,0.00,,,0.00,TxWx,2013-03-25 14:23:00,
2013-03-25 09:29:00,33.9,26.0,29.89,WNW,285,13.2,13.8,76,0.00,,,0.00,TxWx,2013-03-25 14:29:00,
2013-03-25 09:34:00,34.0,26.0,29.89,WNW,293,10.2,16.2,76,0.00,,,0.00,TxWx,2013-03-25 14:34:00,
2013-03-25 09:39:00,34.1,26.0,29.89,WNW,303,16.8,20.1,75,0.00,,,0.00,TxWx,2013-03-25 14:39:00,
2013-03-25 09:45:00,34.1,26.0,29.90,NW,304,18.0,18.0,77,0.00,,,0.00,TxWx,2013-03-25 14:45:00,
2013-03-25 09:50:00,34.1,26.0,29.90,SSE,162,9.9,10.8,76,0.00,,,0.00,TxWx,2013-03-25 14:50:00,
2013-03-25 09:55:00,34.2,26.0,29.90,WNW,303,13.2,17.1,76,0.00,,,0.00,TxWx,2013-03-25 14:55:00,
2013-03-25 10:00:00,34.2,26.0,29.90,WNW,297,13.2,13.2,75,0.00,,,0.00,TxWx,2013-03-25 15:00:00,
2013-03-25 10:05:00,34.2,26.0,29.91,NW,304,15.9,16.8,75,0.00,,,0.00,TxWx,2013-03-25 15:05:00,
2013-03-25 10:10:00,34.3,26.0,29.91,NW,305,16.5,20.7,75,0.00,,,0.00,TxWx,2013-03-25 15:10:00,
2013-03-25 10:15:00,34.3,26.0,29.91,WNW,297,21.3,21.3,75,0.00,,,0.00,TxWx,2013-03-25 15:15:00,
2013-03-25 10:21:00,34.4,26.0,29.91,NW,304,23.1,23.1,75,0.00,,,0.00,TxWx,2013-03-25 15:21:00,
2013-03-25 10:26:00,34.5,27.0,29.92,WNW,289,20.1,20.7,75,0.00,,,0.00,TxWx,2013-03-25 15:26:00,
2013-03-25 10:32:00,34.7,26.0,29.92,WNW,298,20.1,20.4,74,0.00,,,0.00,TxWx,2013-03-25 15:32:00,
2013-03-25 10:37:00,34.9,27.0,29.92,NW,310,19.2,20.4,75,0.00,,,0.00,TxWx,2013-03-25 15:37:00,
2013-03-25 10:42:00,35.4,26.0,29.92,NW,313,15.9,15.9,73,0.00,,,0.00,TxWx,2013-03-25 15:42:00,
2013-03-25 10:47:00,35.0,26.0,29.92,WNW,289,17.1,18.6,73,0.00,,,0.00,TxWx,2013-03-25 15:47:00,
2013-03-25 10:52:00,35.1,26.0,29.92,WNW,287,20.7,20.7,73,0.00,,,0.00,TxWx,2013-03-25 15:52:00,
2013-03-25 10:57:00,35.3,26.0,29.93,WNW,294,12.9,13.2,72,0.00,,,0.00,TxWx,2013-03-25 15:57:00,
2013-03-25 11:03:00,35.4,26.0,29.93,WNW,294,17.7,18.0,72,0.00,,,0.00,TxWx,2013-03-25 16:03:00,
2013-03-25 11:08:00,35.5,26.0,29.93,WNW,301,15.0,15.9,73,0.00,,,0.00,TxWx,2013-03-25 16:08:00,
2013-03-25 11:13:00,35.8,27.0,29.93,NW,307,15.0,17.4,74,0.00,,,0.00,TxWx,2013-03-25 16:13:00,
2013-03-25 11:18:00,35.8,28.0,29.93,NW,306,20.4,20.7,74,0.00,,,0.00,TxWx,2013-03-25 16:18:00,
2013-03-25 11:24:00,35.7,27.0,29.93,WNW,303,18.9,19.5,72,0.00,,,0.00,TxWx,2013-03-25 16:24:00,
2013-03-25 11:29:00,35.8,27.0,29.93,WNW,301,25.5,27.6,73,0.00,,,0.00,TxWx,2013-03-25 16:29:00,
2013-03-25 11:34:00,35.8,27.0,29.93,WNW,298,17.4,18.3,74,0.00,,,0.00,TxWx,2013-03-25 16:34:00,
2013-03-25 11:39:00,35.9,27.0,29.94,NW,311,23.1,23.1,73,0.00,,,0.00,TxWx,2013-03-25 16:39:00,
2013-03-25 11:44:00,35.7,28.0,29.94,NW,308,19.5,19.5,74,0.00,,,0.00,TxWx,2013-03-25 16:44:00,
2013-03-25 11:50:00,35.6,28.0,29.94,WNW,297,12.9,15.0,77,0.00,,,0.00,TxWx,2013-03-25 16:50:00,
2013-03-25 11:55:00,35.5,28.0,29.94,WNW,288,15.3,15.3,78,0.00,,,0.00,TxWx,2013-03-25 16:55:00,
2013-03-25 12:00:00,35.2,27.0,29.94,WNW,287,19.2,19.5,77,0.00,,,0.00,TxWx,2013-03-25 17:00:00,
2013-03-25 12:05:00,35.4,28.0,29.94,NW,304,11.7,14.7,78,0.00,,,0.00,TxWx,2013-03-25 17:05:00,
2013-03-25 12:10:00,35.5,28.0,29.94,WNW,295,18.0,18.3,78,0.00,,,0.00,TxWx,2013-03-25 17:10:00,
2013-03-25 12:15:00,35.4,28.0,29.95,WNW,295,13.5,13.5,77,0.00,,,0.00,TxWx,2013-03-25 17:15:00,
2013-03-25 12:21:00,35.6,29.0,29.95,WNW,294,9.0,13.2,79,0.00,,,0.00,TxWx,2013-03-25 17:21:00,
2013-03-25 12:26:00,35.5,28.0,29.95,WNW,295,21.0,22.2,77,0.00,,,0.00,TxWx,2013-03-25 17:26:00,
2013-03-25 12:31:00,35.5,28.0,29.95,WNW,296,27.0,33.9,76,0.00,,,0.00,TxWx,2013-03-25 17:31:00,
2013-03-25 12:37:00,35.6,28.0,29.96,NW,304,30.9,31.8,77,0.00,,,0.00,TxWx,2013-03-25 17:37:00,
2013-03-25 12:42:00,35.6,28.0,29.95,WNW,298,14.7,15.6,77,0.00,,,0.00,TxWx,2013-03-25 17:42:00,
2013-03-25 12:48:00,35.3,27.0,29.95,WNW,293,22.2,22.2,77,0.00,,,0.00,TxWx,2013-03-25 17:48:00,
2013-03-25 12:53:00,35.3,28.0,29.96,WNW,292,22.2,22.5,77,0.00,,,0.00,TxWx,2013-03-25 17:53:00,
2013-03-25 12:58:00,35.6,29.0,29.96,WNW,297,18.6,18.6,78,0.00,,,0.00,TxWx,2013-03-25 17:58:00,
2013-03-25 13:03:00,35.7,28.0,29.96,WNW,298,12.9,14.4,77,0.00,,,0.00,TxWx,2013-03-25 18:03:00,
2013-03-25 13:09:00,35.7,28.0,29.96,NW,309,26.1,32.7,76,0.00,,,0.00,TxWx,2013-03-25 18:09:00,
2013-03-25 13:14:00,36.4,29.0,29.97,WNW,302,16.2,16.2,79,0.00,,,0.00,TxWx,2013-03-25 18:14:00,
2013-03-25 13:19:00,36.0,29.0,29.97,WNW,296,12.6,13.5,79,0.00,,,0.00,TxWx,2013-03-25 18:19:00,
2013-03-25 13:24:00,36.0,29.0,29.97,WNW,297,15.9,16.8,79,0.00,,,0.00,TxWx,2013-03-25 18:24:00,
2013-03-25 13:30:00,36.0,29.0,29.97,WNW,299,22.2,22.2,79,0.00,,,0.00,TxWx,2013-03-25 18:30:00,
2013-03-25 13:35:00,36.2,29.0,29.97,WNW,301,18.3,21.6,78,0.00,,,0.00,TxWx,2013-03-25 18:35:00,
2013-03-25 13:40:00,36.3,29.0,29.97,WNW,293,18.6,20.1,79,0.00,,,0.00,TxWx,2013-03-25 18:40:00,
2013-03-25 13:45:00,35.8,28.0,29.98,NW,307,22.8,22.8,77,0.00,,,0.00,TxWx,2013-03-25 18:45:00,
2013-03-25 13:51:00,35.9,28.0,29.98,NW,308,14.7,14.7,77,0.00,,,0.00,TxWx,2013-03-25 18:51:00,
2013-03-25 13:56:00,35.9,28.0,29.98,WNW,300,13.2,16.5,75,0.00,,,0.00,TxWx,2013-03-25 18:56:00,
2013-03-25 14:01:00,35.9,29.0,29.98,NW,304,20.1,20.1,78,0.00,,,0.00,TxWx,2013-03-25 19:01:00,
2013-03-25 14:07:00,35.9,28.0,29.98,WNW,296,20.1,21.6,77,0.00,,,0.00,TxWx,2013-03-25 19:07:00,
2013-03-25 14:12:00,36.3,29.0,29.98,NW,306,19.2,26.1,79,0.00,,,0.00,TxWx,2013-03-25 19:12:00,
2013-03-25 14:17:00,36.2,29.0,29.99,WNW,298,19.8,19.8,78,0.00,,,0.00,TxWx,2013-03-25 19:17:00,
2013-03-25 14:22:00,36.1,28.0,29.99,WNW,286,14.7,19.2,75,0.00,,,0.00,TxWx,2013-03-25 19:22:00,
2013-03-25 14:27:00,36.4,28.0,29.99,WNW,289,17.4,17.4,76,0.00,,,0.00,TxWx,2013-03-25 19:27:00,
2013-03-25 14:33:00,36.2,28.0,29.99,WNW,297,30.3,30.3,75,0.00,,,0.00,TxWx,2013-03-25 19:33:00,
2013-03-25 14:38:00,36.3,28.0,29.99,WNW,301,18.6,21.9,77,0.00,,,0.00,TxWx,2013-03-25 19:38:00,
2013-03-25 14:43:00,36.7,29.0,29.99,WNW,299,18.6,18.9,77,0.00,,,0.00,TxWx,2013-03-25 19:43:00,
2013-03-25 14:48:00,37.0,29.0,29.99,NW,315,15.6,15.6,77,0.00,,,0.00,TxWx,2013-03-25 19:48:00,
2013-03-25 14:53:00,36.6,29.0,29.99,NW,308,21.3,21.3,75,0.00,,,0.00,TxWx,2013-03-25 19:53:00,
2013-03-25 14:58:00,36.1,29.0,30.00,WNW,294,13.2,16.2,79,0.00,,,0.00,TxWx,2013-03-25 19:58:00,
2013-03-25 15:04:00,36.5,28.0,30.00,WNW,292,15.9,15.9,77,0.00,,,0.00,TxWx,2013-03-25 20:04:00,
2013-03-25 15:09:00,36.2,27.0,30.00,WNW,291,18.3,20.1,73,0.00,,,0.00,TxWx,2013-03-25 20:09:00,
2013-03-25 15:14:00,36.7,29.0,30.00,WNW,295,26.4,26.4,76,0.00,,,0.00,TxWx,2013-03-25 20:14:00,
2013-03-25 15:19:00,36.6,28.0,30.00,WNW,295,14.4,14.4,74,0.00,,,0.00,TxWx,2013-03-25 20:19:00,
2013-03-25 15:24:00,36.3,27.0,30.00,WNW,296,26.1,27.3,73,0.00,,,0.00,TxWx,2013-03-25 20:24:00,
2013-03-25 15:29:00,36.6,29.0,30.01,WNW,283,13.8,18.9,75,0.00,,,0.00,TxWx,2013-03-25 20:29:00,
2013-03-25 15:34:00,36.7,29.0,30.01,WNW,287,12.3,14.7,76,0.00,,,0.00,TxWx,2013-03-25 20:34:00,
2013-03-25 15:39:00,35.9,30.0,30.01,WNW,284,21.9,21.9,81,0.00,,,0.00,TxWx,2013-03-25 20:39:00,
2013-03-25 15:44:00,35.7,30.0,30.01,WNW,302,21.9,22.5,82,0.00,,,0.00,TxWx,2013-03-25 20:44:00,
2013-03-25 15:49:00,35.5,30.0,30.02,WNW,295,15.9,18.9,85,0.00,,,0.00,TxWx,2013-03-25 20:49:00,
2013-03-25 15:54:00,35.0,30.0,30.02,West,279,18.6,18.6,85,0.00,,,0.00,TxWx,2013-03-25 20:54:00,
2013-03-25 15:59:00,35.5,33.0,30.03,WNW,288,14.1,14.1,89,0.00,,,0.00,TxWx,2013-03-25 20:59:00,
2013-03-25 16:05:00,34.9,30.0,30.03,West,274,18.0,18.0,85,0.00,,,0.00,TxWx,2013-03-25 21:05:00,
2013-03-25 16:10:00,35.3,30.0,30.03,WNW,284,12.0,16.2,86,0.00,,,0.00,TxWx,2013-03-25 21:10:00,
2013-03-25 16:15:00,35.0,30.0,30.03,WNW,288,18.3,19.2,86,0.00,,,0.00,TxWx,2013-03-25 21:15:00,
2013-03-25 16:20:00,34.9,30.0,30.04,WNW,290,16.8,16.8,86,0.00,,,0.00,TxWx,2013-03-25 21:20:00,
2013-03-25 16:25:00,34.9,30.0,30.04,WNW,289,19.5,19.5,85,0.00,,,0.00,TxWx,2013-03-25 21:25:00,
2013-03-25 16:30:00,34.9,29.0,30.04,WNW,284,15.0,19.8,82,0.00,,,0.00,TxWx,2013-03-25 21:30:00,
2013-03-25 16:35:00,34.5,29.0,30.05,WNW,284,18.6,20.4,81,0.00,,,0.00,TxWx,2013-03-25 21:35:00,
2013-03-25 16:41:00,34.6,30.0,30.05,West,274,22.5,23.1,85,0.00,,,0.00,TxWx,2013-03-25 21:41:00,
2013-03-25 16:46:00,34.5,30.0,30.05,WNW,283,15.6,15.9,85,0.00,,,0.00,TxWx,2013-03-25 21:46:00,
2013-03-25 16:51:00,34.3,29.0,30.05,WNW,292,22.2,23.1,84,0.00,,,0.00,TxWx,2013-03-25 21:51:00,
2013-03-25 16:56:00,34.5,29.0,30.06,WNW,288,16.5,17.1,85,0.00,,,0.00,TxWx,2013-03-25 21:56:00,
2013-03-25 17:02:00,34.4,29.0,30.06,WNW,285,13.2,13.2,85,0.00,,,0.00,TxWx,2013-03-25 22:02:00,
2013-03-25 17:07:00,34.1,29.0,30.06,WNW,284,21.6,21.6,85,0.00,,,0.00,TxWx,2013-03-25 22:07:00,
2013-03-25 17:12:00,34.2,29.0,30.06,WNW,298,19.2,20.4,84,0.00,,,0.00,TxWx,2013-03-25 22:12:00,
2013-03-25 17:17:00,34.1,28.0,30.07,WNW,285,19.8,23.7,83,0.00,,,0.00,TxWx,2013-03-25 22:17:00,
2013-03-25 17:23:00,34.1,29.0,30.07,WNW,289,21.0,21.0,84,0.00,,,0.00,TxWx,2013-03-25 22:23:00,
2013-03-25 17:29:00,34.1,29.0,30.07,WNW,294,15.3,17.1,84,0.00,,,0.00,TxWx,2013-03-25 22:29:00,
2013-03-25 17:34:00,34.2,29.0,30.07,WNW,286,11.4,12.9,85,0.00,,,0.00,TxWx,2013-03-25 22:34:00,
2013-03-25 17:39:00,34.1,29.0,30.08,WNW,288,14.7,15.3,85,0.00,,,0.00,TxWx,2013-03-25 22:39:00,
2013-03-25 17:44:00,33.9,29.0,30.08,WNW,291,16.8,17.4,84,0.00,,,0.00,TxWx,2013-03-25 22:44:00,
2013-03-25 17:49:00,33.9,29.0,30.08,West,277,16.2,16.2,84,0.00,,,0.00,TxWx,2013-03-25 22:49:00,
2013-03-25 17:54:00,33.9,29.0,30.09,WNW,295,15.9,16.5,84,0.00,,,0.00,TxWx,2013-03-25 22:54:00,
2013-03-25 17:59:00,33.6,28.0,30.08,WNW,286,19.2,19.8,82,0.00,,,0.00,TxWx,2013-03-25 22:59:00,
2013-03-25 18:04:00,33.7,28.0,30.09,WNW,282,17.4,20.7,83,0.00,,,0.00,TxWx,2013-03-25 23:04:00,
2013-03-25 18:10:00,33.8,28.0,30.09,WNW,283,14.7,14.7,83,0.00,,,0.00,TxWx,2013-03-25 23:10:00,
2013-03-25 18:15:00,33.4,27.0,30.10,WNW,292,13.8,14.4,83,0.00,,,0.00,TxWx,2013-03-25 23:15:00,
2013-03-25 18:20:00,33.3,28.0,30.10,WNW,292,14.7,14.7,85,0.00,,,0.00,TxWx,2013-03-25 23:20:00,
2013-03-25 18:25:00,33.1,28.0,30.10,WNW,283,15.3,20.7,86,0.00,,,0.00,TxWx,2013-03-25 23:25:00,
2013-03-25 18:30:00,33.0,28.0,30.11,WNW,289,18.9,18.9,85,0.00,,,0.00,TxWx,2013-03-25 23:30:00,
2013-03-25 18:35:00,33.0,28.0,30.11,WNW,291,11.4,13.2,86,0.00,,,0.00,TxWx,2013-03-25 23:35:00,
2013-03-25 18:40:00,32.9,28.0,30.11,West,280,20.7,20.7,85,0.00,,,0.00,TxWx,2013-03-25 23:40:00,
2013-03-25 18:45:00,32.9,28.0,30.11,WNW,286,15.0,15.6,85,0.00,,,0.00,TxWx,2013-03-25 23:45:00,
2013-03-25 18:51:00,32.9,28.0,30.11,WNW,287,12.0,12.9,85,0.00,,,0.00,TxWx,2013-03-25 23:51:00,
2013-03-25 18:57:00,32.9,28.0,30.12,WNW,284,18.3,21.0,86,0.00,,,0.00,TxWx,2013-03-25 23:57:00,
2013-03-25 19:02:00,32.9,28.0,30.12,WNW,297,13.2,13.2,85,0.00,,,0.00,TxWx,2013-03-26 00:02:00,
2013-03-25 19:07:00,32.9,28.0,30.13,WNW,294,22.8,23.1,85,0.00,,,0.00,TxWx,2013-03-26 00:07:00,
2013-03-25 19:12:00,32.9,28.0,30.13,WNW,292,16.2,16.2,85,0.00,,,0.00,TxWx,2013-03-26 00:12:00,
2013-03-25 19:17:00,32.9,28.0,30.13,WNW,286,21.3,21.3,85,0.00,,,0.00,TxWx,2013-03-26 00:17:00,
2013-03-25 19:23:00,33.0,28.0,30.13,West,277,13.2,16.8,84,0.00,,,0.00,TxWx,2013-03-26 00:23:00,
2013-03-25 19:28:00,33.1,28.0,30.13,WNW,290,13.2,13.2,84,0.00,,,0.00,TxWx,2013-03-26 00:28:00,
2013-03-25 19:33:00,33.1,28.0,30.13,WNW,283,15.9,15.9,84,0.00,,,0.00,TxWx,2013-03-26 00:33:00,
2013-03-25 19:38:00,33.2,27.0,30.14,WNW,283,15.3,16.5,83,0.00,,,0.00,TxWx,2013-03-26 00:38:00,
2013-03-25 19:43:00,33.2,27.0,30.14,WNW,288,14.4,15.0,83,0.00,,,0.00,TxWx,2013-03-26 00:43:00,
2013-03-25 19:48:00,33.2,27.0,30.14,WNW,284,10.2,12.6,82,0.00,,,0.00,TxWx,2013-03-26 00:48:00,
2013-03-25 19:53:00,33.2,27.0,30.14,WNW,285,19.2,22.5,82,0.00,,,0.00,TxWx,2013-03-26 00:53:00,
2013-03-25 19:59:00,33.3,27.0,30.14,WNW,282,14.1,15.6,83,0.00,,,0.00,TxWx,2013-03-26 00:59:00,
2013-03-25 20:04:00,33.3,28.0,30.15,WNW,283,14.7,15.0,84,0.00,,,0.00,TxWx,2013-03-26 01:04:00,
2013-03-25 20:09:00,33.3,28.0,30.15,WNW,294,12.6,12.6,84,0.00,,,0.00,TxWx,2013-03-26 01:09:00,
2013-03-25 20:14:00,33.3,27.0,30.15,WNW,290,15.0,16.5,83,0.00,,,0.00,TxWx,2013-03-26 01:14:00,
2013-03-25 20:20:00,33.3,28.0,30.15,WNW,292,14.1,15.9,84,0.00,,,0.00,TxWx,2013-03-26 01:20:00,
2013-03-25 20:25:00,33.3,27.0,30.15,West,280,14.7,14.7,83,0.00,,,0.00,TxWx,2013-03-26 01:25:00,
2013-03-25 20:30:00,33.3,27.0,30.16,WNW,288,15.9,15.9,82,0.00,,,0.00,TxWx,2013-03-26 01:30:00,
2013-03-25 20:35:00,33.3,27.0,30.16,WNW,297,20.7,20.7,81,0.00,,,0.00,TxWx,2013-03-26 01:35:00,
2013-03-25 20:40:00,33.3,27.0,30.16,WNW,287,15.0,15.0,82,0.00,,,0.00,TxWx,2013-03-26 01:40:00,
2013-03-25 20:46:00,33.3,27.0,30.16,WNW,291,13.8,15.9,83,0.00,,,0.00,TxWx,2013-03-26 01:46:00,
2013-03-25 20:51:00,33.2,27.0,30.17,WNW,282,12.0,12.0,81,0.00,,,0.00,TxWx,2013-03-26 01:51:00,
2013-03-25 20:56:00,33.3,27.0,30.16,WNW,283,11.7,12.6,81,0.00,,,0.00,TxWx,2013-03-26 01:56:00,
2013-03-25 21:01:00,33.4,27.0,30.17,WNW,286,8.7,9.6,82,0.00,,,0.00,TxWx,2013-03-26 02:01:00,
2013-03-25 21:07:00,33.5,27.0,30.17,WNW,290,12.3,12.3,79,0.00,,,0.00,TxWx,2013-03-26 02:07:00,
2013-03-25 21:12:00,33.7,27.0,30.17,WNW,290,11.7,11.7,79,0.00,,,0.00,TxWx,2013-03-26 02:12:00,
2013-03-25 21:17:00,33.7,27.0,30.17,WNW,284,13.5,13.5,80,0.00,,,0.00,TxWx,2013-03-26 02:17:00,
2013-03-25 21:22:00,33.7,28.0,30.17,WNW,290,12.3,12.3,81,0.00,,,0.00,TxWx,2013-03-26 02:22:00,
2013-03-25 21:27:00,33.7,27.0,30.17,WNW,291,12.6,15.9,79,0.00,,,0.00,TxWx,2013-03-26 02:27:00,
2013-03-25 21:32:00,33.8,27.0,30.18,WNW,290,11.7,12.6,79,0.00,,,0.00,TxWx,2013-03-26 02:32:00,
2013-03-25 21:38:00,33.7,27.0,30.18,WNW,285,14.1,15.0,79,0.00,,,0.00,TxWx,2013-03-26 02:38:00,
2013-03-25 21:43:00,33.8,27.0,30.18,WNW,286,10.5,11.4,79,0.00,,,0.00,TxWx,2013-03-26 02:43:00,
2013-03-25 21:48:00,33.8,27.0,30.18,WNW,286,15.0,15.0,79,0.00,,,0.00,TxWx,2013-03-26 02:48:00,
2013-03-25 21:53:00,33.8,27.0,30.18,WNW,285,18.3,18.3,79,0.00,,,0.00,TxWx,2013-03-26 02:53:00,
2013-03-25 21:58:00,33.9,27.0,30.18,WNW,289,11.7,13.5,78,0.00,,,0.00,TxWx,2013-03-26 02:58:00,
2013-03-25 22:04:00,33.8,27.0,30.18,WNW,288,12.6,12.6,79,0.00,,,0.00,TxWx,2013-03-26 03:04:00,
2013-03-25 22:09:00,33.9,27.0,30.18,WNW,293,9.6,9.9,78,0.00,,,0.00,TxWx,2013-03-26 03:09:00,
2013-03-25 22:14:00,33.8,27.0,30.18,WNW,285,9.6,10.2,79,0.00,,,0.00,TxWx,2013-03-26 03:14:00,
2013-03-25 22:19:00,33.8,27.0,30.18,WNW,289,15.9,16.5,79,0.00,,,0.00,TxWx,2013-03-26 03:19:00,
2013-03-25 22:24:00,33.8,27.0,30.19,WNW,287,15.6,18.0,80,0.00,,,0.00,TxWx,2013-03-26 03:24:00,
2013-03-25 22:29:00,33.8,28.0,30.19,WNW,285,9.6,9.6,81,0.00,,,0.00,TxWx,2013-03-26 03:29:00,
2013-03-25 22:35:00,33.8,28.0,30.19,WNW,284,9.9,10.8,81,0.00,,,0.00,TxWx,2013-03-26 03:35:00,
2013-03-25 22:40:00,33.7,27.0,30.19,WNW,285,15.3,15.6,80,0.00,,,0.00,TxWx,2013-03-26 03:40:00,
2013-03-25 22:45:00,33.8,27.0,30.19,WNW,286,7.5,7.5,80,0.00,,,0.00,TxWx,2013-03-26 03:45:00,
2013-03-25 22:50:00,33.7,28.0,30.19,WNW,287,14.7,15.9,81,0.00,,,0.00,TxWx,2013-03-26 03:50:00,
2013-03-25 22:55:00,33.6,28.0,30.19,WNW,287,12.3,15.6,82,0.00,,,0.00,TxWx,2013-03-26 03:55:00,
2013-03-25 23:00:00,33.5,28.0,30.19,WNW,283,8.4,8.7,82,0.00,,,0.00,TxWx,2013-03-26 04:00:00,
2013-03-25 23:05:00,33.5,27.0,30.19,WNW,289,10.2,12.3,82,0.00,,,0.00,TxWx,2013-03-26 04:05:00,
2013-03-25 23:07:00,33.5,28.0,30.19,WNW,288,11.1,11.1,82,0.00,,,0.00,TxWx,2013-03-26 04:07:00,
2013-03-25 23:12:00,33.5,28.0,30.19,WNW,288,12.6,13.5,82,0.00,,,0.00,TxWx,2013-03-26 04:12:00,
2013-03-25 23:17:00,33.6,27.0,30.19,WNW,286,12.6,13.5,80,0.00,,,0.00,TxWx,2013-03-26 04:17:00,
2013-03-25 23:22:00,33.6,27.0,30.19,WNW,295,8.4,9.9,80,0.00,,,0.00,TxWx,2013-03-26 04:22:00,
2013-03-25 23:27:00,33.7,28.0,30.19,WNW,283,10.5,10.8,81,0.00,,,0.00,TxWx,2013-03-26 04:27:00,
2013-03-25 23:33:00,33.8,27.0,30.19,WNW,282,15.6,15.6,79,0.00,,,0.00,TxWx,2013-03-26 04:33:00,
2013-03-25 23:38:00,33.9,27.0,30.19,WNW,286,8.7,9.0,79,0.00,,,0.00,TxWx,2013-03-26 04:38:00,
2013-03-25 23:43:00,34.0,27.0,30.19,WNW,290,12.3,12.9,78,0.00,,,0.00,TxWx,2013-03-26 04:43:00,
2013-03-25 23:48:00,34.1,27.0,30.19,WNW,283,10.8,12.0,78,0.00,,,0.00,TxWx,2013-03-26 04:48:00,
2013-03-25 23:53:00,34.0,27.0,30.19,West,279,8.1,8.7,78,0.00,,,0.00,TxWx,2013-03-26 04:53:00,
2013-03-25 23:59:00,34.0,27.0,30.19,WNW,282,12.9,12.9,77,0.00,,,0.00,TxWx,2013-03-26 04:59:00,